createdAt,value
2017-09-14T00:00:46.795Z,7.03
2017-09-14T00:03:14.647Z,6.30
2017-09-14T00:05:42.268Z,6.67
2017-09-14T00:08:09.912Z,6.50
2017-09-14T00:10:38.383Z,6.47
2017-09-14T00:13:05.957Z,5.80
2017-09-14T00:15:33.533Z,6.87
2017-09-14T00:18:01.135Z,6.70
2017-09-14T00:20:28.682Z,6.80
2017-09-14T00:22:56.298Z,6.13
2017-09-14T00:25:23.917Z,5.80
2017-09-14T00:27:51.524Z,6.23
2017-09-14T00:30:19.580Z,5.37
2017-09-14T00:32:47.282Z,6.23
2017-09-14T00:35:15.128Z,5.40
2017-09-14T00:37:42.736Z,5.40
2017-09-14T00:40:10.390Z,5.77
2017-09-14T00:42:38.155Z,5.80
2017-09-14T00:45:05.795Z,6.13
2017-09-14T00:47:33.341Z,6.73
2017-09-14T00:50:01.127Z,6.33
2017-09-14T00:52:28.770Z,6.80
2017-09-14T00:54:56.373Z,5.47
2017-09-14T00:57:24.215Z,6.33
2017-09-14T00:59:52.129Z,5.60
2017-09-14T01:02:19.709Z,5.17
2017-09-14T01:04:47.348Z,5.53
2017-09-14T01:07:14.927Z,5.60
2017-09-14T01:09:42.539Z,6.40
2017-09-14T01:12:10.118Z,6.47
2017-09-14T01:14:37.724Z,6.60
2017-09-14T01:17:05.514Z,6.73
2017-09-14T01:19:33.109Z,6.10
2017-09-14T01:22:00.747Z,5.47
2017-09-14T01:24:28.391Z,6.00
2017-09-14T01:26:56.008Z,6.47
2017-09-14T01:29:23.835Z,5.97
2017-09-14T01:31:51.553Z,5.80
2017-09-14T01:34:19.183Z,6.00
2017-09-14T01:36:46.834Z,5.23
2017-09-14T01:39:14.499Z,6.00
2017-09-14T01:41:42.095Z,6.07
2017-09-14T01:44:09.710Z,5.97
2017-09-14T01:46:37.317Z,6.13
2017-09-14T01:49:04.876Z,7.50
2017-09-14T01:51:32.528Z,5.90
2017-09-14T01:54:00.140Z,6.10
2017-09-14T01:56:27.793Z,6.80
2017-09-14T01:58:55.378Z,6.70
2017-09-14T02:01:23.191Z,6.17
2017-09-14T02:03:51.728Z,5.93
2017-09-14T02:06:19.596Z,5.73
2017-09-14T02:08:47.229Z,6.73
2017-09-14T02:11:14.765Z,6.37
2017-09-14T02:13:42.326Z,6.40
2017-09-14T02:16:09.915Z,7.07
2017-09-14T02:18:37.687Z,6.47
2017-09-14T02:21:05.278Z,6.40
2017-09-14T02:23:32.881Z,6.87
2017-09-14T02:26:00.462Z,7.17
2017-09-14T02:28:28.058Z,7.17
2017-09-14T02:30:55.706Z,6.37
2017-09-14T02:33:23.299Z,6.50
2017-09-14T02:35:51.069Z,7.13
2017-09-14T02:38:18.785Z,6.87
2017-09-14T02:40:46.324Z,7.20
2017-09-14T02:43:13.864Z,6.40
2017-09-14T02:45:41.435Z,7.10
2017-09-14T02:48:09.100Z,6.13
2017-09-14T02:50:36.870Z,6.43
2017-09-14T02:53:04.463Z,6.13
2017-09-14T02:55:32.006Z,6.30
2017-09-14T02:57:59.541Z,6.43
2017-09-14T03:00:27.426Z,7.20
2017-09-14T03:02:55.032Z,6.70
2017-09-14T03:05:22.625Z,6.37
2017-09-14T03:07:50.234Z,8.10
2017-09-14T03:10:17.814Z,8.20
2017-09-14T03:12:45.355Z,5.87
2017-09-14T03:15:12.906Z,7.40
2017-09-14T03:17:40.514Z,6.00
2017-09-14T03:20:08.045Z,6.47
2017-09-14T03:22:35.652Z,6.50
2017-09-14T03:25:03.183Z,7.43
2017-09-14T03:27:30.755Z,6.70
2017-09-14T03:29:58.344Z,7.27
2017-09-14T03:32:25.986Z,6.63
2017-09-14T03:34:53.554Z,7.63
2017-09-14T03:37:21.117Z,6.97
2017-09-14T03:39:48.677Z,7.07
2017-09-14T03:42:16.241Z,7.63
2017-09-14T03:44:43.764Z,7.97
2017-09-14T03:47:11.434Z,6.70
2017-09-14T03:49:39.086Z,8.03
2017-09-14T03:52:07.228Z,8.00
2017-09-14T03:54:34.793Z,7.50
2017-09-14T03:57:11.721Z,7.63
2017-09-14T03:59:39.394Z,8.53
2017-09-14T04:02:07.054Z,9.20
2017-09-14T04:04:36.073Z,7.37
2017-09-14T04:07:03.646Z,8.90
2017-09-14T04:09:32.450Z,9.00
2017-09-14T04:12:00.127Z,9.20
2017-09-14T04:14:27.893Z,9.30
2017-09-14T04:16:57.611Z,10.20
2017-09-14T04:19:25.267Z,9.40
2017-09-14T04:21:52.916Z,9.83
2017-09-14T04:28:14.287Z,8.57
2017-09-14T04:30:42.513Z,8.30
2017-09-14T04:33:10.135Z,7.97
2017-09-14T04:35:38.035Z,9.87
2017-09-14T04:38:05.724Z,8.00
2017-09-14T04:40:34.125Z,9.37
2017-09-14T04:43:01.782Z,9.70
2017-09-14T04:45:29.432Z,9.43
2017-09-14T04:47:57.063Z,8.60
2017-09-14T04:50:24.777Z,8.10
2017-09-14T04:53:31.421Z,9.23
2017-09-14T04:55:59.235Z,9.10
2017-09-14T04:58:26.790Z,9.87
2017-09-14T05:00:54.371Z,8.90
2017-09-14T05:03:22.001Z,8.77
2017-09-14T05:05:49.561Z,8.47
2017-09-14T05:08:17.160Z,8.27
2017-09-14T05:10:44.776Z,9.47
2017-09-14T05:13:12.391Z,8.10
2017-09-14T05:15:40.017Z,9.60
2017-09-14T05:18:07.662Z,9.50
2017-09-14T05:20:35.225Z,9.63
2017-09-14T05:23:02.834Z,8.50
2017-09-14T05:25:30.590Z,9.53
2017-09-14T05:27:58.406Z,9.17
2017-09-14T05:30:26.152Z,9.57
2017-09-14T05:32:53.994Z,9.17
2017-09-14T05:35:21.767Z,9.77
2017-09-14T05:37:49.327Z,9.43
2017-09-14T05:40:16.854Z,9.93
2017-09-14T05:42:44.442Z,11.50
2017-09-14T05:45:12.029Z,10.30
2017-09-14T05:47:39.719Z,11.00
2017-09-14T05:50:07.383Z,10.40
2017-09-14T05:52:34.977Z,10.27
2017-09-14T05:55:02.614Z,10.43
2017-09-14T05:57:30.140Z,10.53
2017-09-14T05:59:57.830Z,10.23
2017-09-14T06:02:25.991Z,9.63
2017-09-14T06:04:53.773Z,10.97
2017-09-14T06:07:21.326Z,8.40
2017-09-14T06:09:48.970Z,8.97
2017-09-14T06:12:16.550Z,8.77
2017-09-14T06:14:44.075Z,9.40
2017-09-14T06:17:11.767Z,8.60
2017-09-14T06:19:39.377Z,9.57
2017-09-14T06:22:07.075Z,9.90
2017-09-14T06:24:34.662Z,9.37
2017-09-14T06:27:02.271Z,8.50
2017-09-14T06:29:29.791Z,9.37
2017-09-14T06:31:57.374Z,9.93
2017-09-14T06:34:24.889Z,8.30
2017-09-14T06:36:52.466Z,9.00
2017-09-14T06:39:23.539Z,8.53
2017-09-14T06:41:51.319Z,8.43
2017-09-14T06:44:26.044Z,7.97
2017-09-14T06:46:53.558Z,8.53
2017-09-14T06:49:21.311Z,8.13
2017-09-14T06:52:04.501Z,7.43
2017-09-14T06:54:38.833Z,6.43
2017-09-14T06:57:07.706Z,6.60
2017-09-14T06:59:35.307Z,7.63
2017-09-14T07:02:40.439Z,7.90
2017-09-14T07:05:08.229Z,7.00
2017-09-14T07:07:43.827Z,7.47
2017-09-14T07:10:21.407Z,7.80
2017-09-14T07:12:48.993Z,7.60
2017-09-14T07:21:02.160Z,7.30
2017-09-14T07:23:30.618Z,7.30
2017-09-14T07:26:00.650Z,7.30
2017-09-14T07:28:35.948Z,7.00
2017-09-14T07:31:03.799Z,7.07
2017-09-14T07:33:31.589Z,7.10
2017-09-14T07:35:59.121Z,6.77
2017-09-14T07:38:26.702Z,6.90
2017-09-14T07:40:54.236Z,6.27
2017-09-14T07:43:22.044Z,6.87
2017-09-14T07:45:49.586Z,8.27
2017-09-14T07:48:17.137Z,6.60
2017-09-14T07:50:44.972Z,5.60
2017-09-14T07:53:12.557Z,5.70
2017-09-14T07:55:40.099Z,5.60
2017-09-14T07:58:07.632Z,6.23
2017-09-14T08:00:35.194Z,6.03
2017-09-14T08:03:02.713Z,6.60
2017-09-14T08:05:30.238Z,5.90
2017-09-14T08:07:57.827Z,6.80
2017-09-14T08:10:25.353Z,6.23
2017-09-14T08:12:52.953Z,6.10
2017-09-14T08:15:20.542Z,6.80
2017-09-14T08:17:48.327Z,6.13
2017-09-14T08:20:15.945Z,6.50
2017-09-14T08:22:44.436Z,6.13
2017-09-14T08:25:12.086Z,5.90
2017-09-14T08:27:39.910Z,6.10
2017-09-14T08:30:07.607Z,5.80
2017-09-14T08:32:35.146Z,5.93
2017-09-14T08:35:02.729Z,6.03
2017-09-14T08:37:30.321Z,6.57
2017-09-14T08:39:57.873Z,5.60
2017-09-14T08:42:25.498Z,7.70
2017-09-14T08:44:53.174Z,6.90
2017-09-14T08:47:20.869Z,6.03
2017-09-14T08:49:48.507Z,6.10
2017-09-14T08:52:16.114Z,6.20
2017-09-14T08:54:43.718Z,5.40
2017-09-14T08:57:11.283Z,6.87
2017-09-14T08:59:38.858Z,6.97
2017-09-14T09:02:06.446Z,6.10
2017-09-14T09:04:34.167Z,5.43
2017-09-14T09:07:01.974Z,5.47
2017-09-14T09:09:29.647Z,4.57
2017-09-14T09:11:58.180Z,5.40
2017-09-14T09:14:25.892Z,5.07
2017-09-14T09:16:53.481Z,5.33
2017-09-14T09:19:21.864Z,4.90
2017-09-14T09:21:49.724Z,4.70
2017-09-14T09:24:17.347Z,4.20
2017-09-14T09:26:45.517Z,4.57
2017-09-14T09:29:13.268Z,4.07
2017-09-14T09:31:40.867Z,4.80
2017-09-14T09:34:08.682Z,5.10
2017-09-14T09:36:36.200Z,4.70
2017-09-14T09:39:03.850Z,5.03
2017-09-14T09:41:31.474Z,3.77
2017-09-14T09:43:59.021Z,3.93
2017-09-14T09:46:26.635Z,3.70
2017-09-14T09:48:54.202Z,4.60
2017-09-14T09:51:21.739Z,3.67
2017-09-14T09:53:49.335Z,4.30
2017-09-14T09:56:17.106Z,3.90
2017-09-14T09:58:44.680Z,4.50
2017-09-14T10:01:12.294Z,5.20
2017-09-14T10:03:39.844Z,3.67
2017-09-14T10:06:07.382Z,3.90
2017-09-14T10:08:35.153Z,5.10
2017-09-14T10:11:02.718Z,4.30
2017-09-14T10:13:30.382Z,3.60
2017-09-14T10:15:58.007Z,3.80
2017-09-14T10:18:25.553Z,4.23
2017-09-14T10:20:53.099Z,4.10
2017-09-14T10:23:20.769Z,4.20
2017-09-14T10:25:48.574Z,3.87
2017-09-14T10:28:16.146Z,3.63
2017-09-14T10:30:43.746Z,3.73
2017-09-14T10:33:12.141Z,6.30
2017-09-14T10:35:39.697Z,4.77
2017-09-14T10:38:07.702Z,4.53
2017-09-14T10:40:35.487Z,3.47
2017-09-14T10:43:03.047Z,3.33
2017-09-14T10:45:31.518Z,4.03
2017-09-14T10:47:59.287Z,4.00
2017-09-14T10:50:27.036Z,4.90
2017-09-14T10:52:54.674Z,3.60
2017-09-14T10:55:22.234Z,3.87
2017-09-14T10:57:49.798Z,3.87
2017-09-14T11:00:19.282Z,3.23
2017-09-14T11:02:46.879Z,3.60
2017-09-14T11:05:14.897Z,3.83
2017-09-14T11:07:42.470Z,3.73
2017-09-14T11:10:19.080Z,3.90
2017-09-14T11:12:46.722Z,3.60
2017-09-14T11:15:14.321Z,3.30
2017-09-14T11:17:41.948Z,4.03
2017-09-14T11:20:09.586Z,4.03
2017-09-14T11:22:37.143Z,3.10
2017-09-14T11:25:04.712Z,3.37
2017-09-14T11:27:32.282Z,3.10
2017-09-14T11:30:05.637Z,3.60
2017-09-14T11:32:33.392Z,3.33
2017-09-14T11:35:01.143Z,3.77
2017-09-14T11:37:32.655Z,3.30
2017-09-14T11:40:00.205Z,2.93
2017-09-14T11:42:27.767Z,3.87
2017-09-14T11:44:55.334Z,4.20
2017-09-14T11:47:25.748Z,4.00
2017-09-14T11:49:53.590Z,4.00
2017-09-14T11:52:21.208Z,3.40
2017-09-14T11:54:49.011Z,3.73
2017-09-14T11:57:19.391Z,3.10
2017-09-14T11:59:47.043Z,3.53
2017-09-14T12:02:14.654Z,4.83
2017-09-14T12:04:43.214Z,3.63
2017-09-14T12:07:10.973Z,4.60
2017-09-14T12:09:41.739Z,3.73
2017-09-14T12:12:14.443Z,3.90
2017-09-14T12:14:42.892Z,3.00
2017-09-14T12:17:14.706Z,4.37
2017-09-14T12:19:42.285Z,3.40
2017-09-14T12:22:12.858Z,3.70
2017-09-14T12:24:41.181Z,4.20
2017-09-14T12:27:09.827Z,3.57
2017-09-14T12:29:39.093Z,3.90
2017-09-14T12:32:06.708Z,3.57
2017-09-14T12:34:34.261Z,3.73
2017-09-14T12:37:04.731Z,3.70
2017-09-14T12:39:32.387Z,3.40
2017-09-14T12:41:59.983Z,3.30
2017-09-14T12:44:27.614Z,3.73
2017-09-14T12:46:59.150Z,3.80
2017-09-14T12:49:27.508Z,4.17
2017-09-14T12:51:55.148Z,3.40
2017-09-14T12:54:22.739Z,3.40
2017-09-14T12:56:51.021Z,4.17
2017-09-14T12:59:18.631Z,3.27
2017-09-14T13:01:46.305Z,3.13
2017-09-14T13:04:13.842Z,3.30
2017-09-14T13:06:41.516Z,3.50
2017-09-14T13:09:09.217Z,3.60
2017-09-14T13:11:37.056Z,3.30
2017-09-14T13:14:04.770Z,3.30
2017-09-14T13:16:32.475Z,3.67
2017-09-14T13:19:00.118Z,3.20
2017-09-14T13:21:27.884Z,3.20
2017-09-14T13:23:55.608Z,3.50
2017-09-14T13:26:23.155Z,4.03
2017-09-14T13:28:50.830Z,3.80
2017-09-14T13:31:18.468Z,2.97
2017-09-14T13:33:46.371Z,3.33
2017-09-14T13:36:13.891Z,4.07
2017-09-14T13:38:41.521Z,3.97
2017-09-14T13:41:09.424Z,5.00
2017-09-14T13:43:37.167Z,4.20
2017-09-14T13:46:04.786Z,3.37
2017-09-14T13:48:32.361Z,3.47
2017-09-14T13:51:00.126Z,3.23
2017-09-14T13:53:27.738Z,3.33
2017-09-14T13:55:55.261Z,3.63
2017-09-14T13:58:22.910Z,4.60
2017-09-14T14:00:50.547Z,3.60
2017-09-14T14:03:18.134Z,3.37
2017-09-14T14:05:45.708Z,3.50
2017-09-14T14:08:13.396Z,4.07
2017-09-14T14:10:40.988Z,3.70
2017-09-14T14:13:08.932Z,3.37
2017-09-14T14:15:36.572Z,3.93
2017-09-14T14:18:04.376Z,3.17
2017-09-14T14:20:32.115Z,2.90
2017-09-14T14:23:00.704Z,4.37
2017-09-14T14:25:28.237Z,3.80
2017-09-14T14:27:56.430Z,3.57
2017-09-14T14:30:24.173Z,3.63
2017-09-14T14:32:51.763Z,3.60
2017-09-14T14:35:19.541Z,3.73
2017-09-14T14:37:47.153Z,3.33
2017-09-14T14:40:14.864Z,3.40
2017-09-14T14:42:42.622Z,2.80
2017-09-14T14:45:10.255Z,3.73
2017-09-14T14:47:38.121Z,3.20
2017-09-14T14:50:05.655Z,2.97
2017-09-14T14:52:33.366Z,3.37
2017-09-14T14:55:00.923Z,3.40
2017-09-14T14:57:28.505Z,3.63
2017-09-14T14:59:56.180Z,3.83
2017-09-14T15:02:23.772Z,3.57
2017-09-14T15:04:51.432Z,3.43
2017-09-14T15:07:19.245Z,3.70
2017-09-14T15:09:46.876Z,6.77
2017-09-14T15:12:14.474Z,4.20
2017-09-14T15:14:42.095Z,4.07
2017-09-14T15:17:09.707Z,3.40
2017-09-14T15:19:37.903Z,4.10
2017-09-14T15:22:05.506Z,5.10
2017-09-14T15:24:33.075Z,4.17
2017-09-14T15:27:00.676Z,4.97
2017-09-14T15:29:28.256Z,5.40
2017-09-14T15:31:56.067Z,6.97
2017-09-14T15:34:23.654Z,4.10
2017-09-14T15:36:51.233Z,5.07
2017-09-14T15:39:24.364Z,4.57
2017-09-14T15:41:51.916Z,5.37
2017-09-14T15:44:25.090Z,5.00
2017-09-14T15:46:52.643Z,5.10
2017-09-14T15:49:25.853Z,6.30
2017-09-14T15:51:53.478Z,6.80
2017-09-14T15:54:20.996Z,6.00
2017-09-14T15:56:51.019Z,5.20
2017-09-14T15:59:18.714Z,8.53
2017-09-14T16:01:46.384Z,6.00
2017-09-14T16:04:14.014Z,5.60
2017-09-14T16:06:41.611Z,4.37
2017-09-14T16:09:09.912Z,5.63
2017-09-14T16:11:37.543Z,4.97
2017-09-14T16:14:05.588Z,5.60
2017-09-14T16:16:33.257Z,5.57
2017-09-14T16:19:00.953Z,5.43
2017-09-14T16:21:28.606Z,6.87
2017-09-14T16:23:56.718Z,5.53
2017-09-14T16:26:24.359Z,5.23
2017-09-14T16:28:52.002Z,5.03
2017-09-14T16:31:20.472Z,5.43
2017-09-14T16:33:48.150Z,5.57
2017-09-14T16:36:16.217Z,5.53
2017-09-14T16:38:43.873Z,6.80
2017-09-14T16:41:13.319Z,4.73
2017-09-14T16:43:40.936Z,5.10
2017-09-14T16:46:12.168Z,5.90
2017-09-14T16:48:40.020Z,6.73
2017-09-14T16:51:07.709Z,11.83
2017-09-14T16:53:35.365Z,8.80
2017-09-14T16:56:03.127Z,7.97
2017-09-14T16:58:30.762Z,5.90
2017-09-14T17:00:58.394Z,6.93
2017-09-14T17:03:29.678Z,6.73
2017-09-14T17:05:57.339Z,7.90
2017-09-14T17:08:25.678Z,7.53
2017-09-14T17:10:54.309Z,6.30
2017-09-14T17:13:24.671Z,6.03
2017-09-14T17:15:56.918Z,6.70
2017-09-14T17:18:26.108Z,8.13
2017-09-14T17:20:57.067Z,9.57
2017-09-14T17:23:25.714Z,8.90
2017-09-14T17:25:53.288Z,11.53
2017-09-14T17:28:20.897Z,10.77
2017-09-14T17:30:50.391Z,12.00
2017-09-14T17:33:17.952Z,6.47
2017-09-14T17:35:47.299Z,6.63
2017-09-14T17:38:14.983Z,6.80
2017-09-14T17:40:42.550Z,8.60
2017-09-14T17:43:11.499Z,12.90
2017-09-14T17:45:39.062Z,12.60
2017-09-14T17:48:06.846Z,11.80
2017-09-14T17:50:35.698Z,8.70
2017-09-14T17:53:03.319Z,9.10
2017-09-14T17:55:31.095Z,7.40
2017-09-14T17:57:58.903Z,8.70
2017-09-14T18:00:29.132Z,7.07
2017-09-14T18:02:57.257Z,6.90
2017-09-14T18:05:24.898Z,6.40
2017-09-14T18:07:52.474Z,6.73
2017-09-14T18:10:20.182Z,7.00
2017-09-14T18:12:48.453Z,6.10
2017-09-14T18:15:16.140Z,6.50
2017-09-14T18:17:44.064Z,6.83
2017-09-14T18:20:12.346Z,7.67
2017-09-14T18:22:43.363Z,8.20
2017-09-14T18:25:10.956Z,8.37
2017-09-14T18:27:39.147Z,9.00
2017-09-14T18:30:07.745Z,11.13
2017-09-14T18:32:37.159Z,10.73
2017-09-14T18:35:04.724Z,10.23
2017-09-14T18:37:34.638Z,9.93
2017-09-14T18:40:02.352Z,10.10
2017-09-14T18:42:29.942Z,9.87
2017-09-14T18:44:57.490Z,9.93
2017-09-14T18:47:25.068Z,9.43
2017-09-14T18:49:52.810Z,8.30
2017-09-14T18:52:20.431Z,7.20
2017-09-14T18:54:48.006Z,7.00
2017-09-14T18:57:15.609Z,8.70
2017-09-14T18:59:43.198Z,11.53
2017-09-14T19:02:10.779Z,11.50
2017-09-14T19:04:38.336Z,12.80
2017-09-14T19:07:06.901Z,10.00
2017-09-14T19:09:34.493Z,12.23
2017-09-14T19:12:02.089Z,10.50
2017-09-14T19:14:29.712Z,9.83
2017-09-14T19:16:57.286Z,10.43
2017-09-14T19:19:24.893Z,10.30
2017-09-14T19:21:52.570Z,14.20
2017-09-14T19:24:20.272Z,9.67
2017-09-14T19:26:47.936Z,9.40
2017-09-14T19:29:15.525Z,7.90
2017-09-14T19:31:43.929Z,7.83
2017-09-14T19:34:14.292Z,8.87
2017-09-14T19:36:41.844Z,8.77
2017-09-14T19:39:09.447Z,9.03
2017-09-14T19:41:37.200Z,9.67
2017-09-14T19:44:04.767Z,10.60
2017-09-14T19:46:33.218Z,9.67
2017-09-14T19:49:00.839Z,9.90
2017-09-14T19:51:28.380Z,11.10
2017-09-14T19:53:55.971Z,9.90
2017-09-14T19:56:23.505Z,8.57
2017-09-14T19:58:51.056Z,8.43
2017-09-14T20:01:19.471Z,5.50
2017-09-14T20:03:46.986Z,5.73
2017-09-14T20:06:14.522Z,5.33
2017-09-14T20:08:42.104Z,4.93
2017-09-14T20:11:09.643Z,7.63
2017-09-14T20:13:38.019Z,8.77
2017-09-14T20:16:05.699Z,10.43
2017-09-14T20:18:33.273Z,9.67
2017-09-14T20:21:00.829Z,11.50
2017-09-14T20:23:28.431Z,12.23
2017-09-14T20:25:57.281Z,11.63
2017-09-14T20:28:24.843Z,9.27
2017-09-14T20:30:53.371Z,8.70
2017-09-14T20:33:20.977Z,9.10
2017-09-14T20:35:48.563Z,14.67
2017-09-14T20:38:16.155Z,15.80
2017-09-14T20:40:44.055Z,10.70
2017-09-14T20:43:11.639Z,9.50
2017-09-14T20:45:39.258Z,8.60
2017-09-14T20:48:06.931Z,10.53
2017-09-14T20:50:34.512Z,9.03
2017-09-14T20:53:02.070Z,9.73
2017-09-14T20:55:29.605Z,13.27
2017-09-14T20:57:57.190Z,14.70
2017-09-14T21:00:24.866Z,9.70
2017-09-14T21:02:52.486Z,10.10
2017-09-14T21:05:20.061Z,8.70
2017-09-14T21:07:47.734Z,8.50
2017-09-14T21:10:15.293Z,10.00
2017-09-14T21:12:42.874Z,10.30
2017-09-14T21:15:10.498Z,12.37
2017-09-14T21:17:38.021Z,9.53
2017-09-14T21:20:05.784Z,10.00
2017-09-14T21:22:33.378Z,9.37
2017-09-14T21:25:00.924Z,9.70
2017-09-14T21:27:28.509Z,9.93
2017-09-14T21:29:56.129Z,10.40
2017-09-14T21:32:23.741Z,12.60
2017-09-14T21:34:51.291Z,12.20
2017-09-14T21:37:18.919Z,9.80
2017-09-14T21:39:46.500Z,10.07
2017-09-14T21:42:14.092Z,10.17
2017-09-14T21:44:41.688Z,11.00
2017-09-14T21:47:09.280Z,11.10
2017-09-14T21:49:36.846Z,10.03
2017-09-14T21:52:04.417Z,10.83
2017-09-14T21:54:32.025Z,10.13
2017-09-14T21:56:59.568Z,12.33
2017-09-14T21:59:27.105Z,11.93
2017-09-14T22:01:54.720Z,10.80
2017-09-14T22:04:22.411Z,11.50
2017-09-14T22:06:49.981Z,11.10
2017-09-14T22:09:17.535Z,11.53
2017-09-14T22:11:45.064Z,11.47
2017-09-14T22:14:12.618Z,10.80
2017-09-14T22:16:40.232Z,12.30
2017-09-14T22:19:07.977Z,11.70
2017-09-14T22:21:35.529Z,11.30
2017-09-14T22:24:03.111Z,11.40
2017-09-14T22:26:30.690Z,10.70
2017-09-14T22:28:59.023Z,10.53
2017-09-14T22:31:26.618Z,9.87
2017-09-14T22:33:54.227Z,9.03
2017-09-14T22:36:21.801Z,9.00
2017-09-14T22:38:49.391Z,10.90
2017-09-14T22:41:16.918Z,10.40
2017-09-14T22:43:44.515Z,10.80
2017-09-14T22:46:12.085Z,10.63
2017-09-14T22:48:39.617Z,12.63
2017-09-14T22:51:07.222Z,12.10
2017-09-14T22:53:34.844Z,12.10
2017-09-14T22:56:02.446Z,12.33
2017-09-14T22:58:30.213Z,10.83
2017-09-14T23:00:57.795Z,9.87
2017-09-14T23:03:25.333Z,10.80
2017-09-14T23:05:52.874Z,10.60
2017-09-14T23:08:21.310Z,9.77
2017-09-14T23:10:48.844Z,9.03
2017-09-14T23:13:16.360Z,8.87
2017-09-14T23:15:43.975Z,8.40
2017-09-14T23:18:11.529Z,9.30
2017-09-14T23:20:39.061Z,9.40
2017-09-14T23:23:06.675Z,8.73
2017-09-14T23:25:34.217Z,9.93
2017-09-14T23:28:01.741Z,10.70
2017-09-14T23:30:29.336Z,8.90
2017-09-14T23:32:56.863Z,9.23
2017-09-14T23:35:24.381Z,8.43
2017-09-14T23:37:51.987Z,9.67
2017-09-14T23:40:19.569Z,9.70
2017-09-14T23:42:47.098Z,9.63
2017-09-14T23:45:14.668Z,8.97
2017-09-14T23:47:42.252Z,9.53
2017-09-14T23:50:09.789Z,10.03
2017-09-14T23:52:37.395Z,10.83
2017-09-14T23:55:04.930Z,10.23
2017-09-14T23:57:32.550Z,10.90
